This is the latest recevied weather packets stored in our database for station/object DM4SB-13. If no packets are shown the sender has not sent any weather packets the latest 10 day(s).
| Time | Temp. | Humidity | Pressure | Rain* | Wind** | Luminosity | Snow |
|---|---|---|---|---|---|---|---|
| 1777903817 | 26.67° C | 32% | 1011.3 hPa | - | - | - | - |
| 1777903218 | 31.67° C | 29% | 1011.4 hPa | - | - | - | - |
| 1777902617 | 28.89° C | 32% | 1011.6 hPa | - | - | - | - |
| 1777902017 | 25.56° C | 36% | 1011.6 hPa | - | - | - | - |
| 1777901417 | 21.67° C | 43% | 1011.8 hPa | - | - | - | - |
| 1777900818 | 20.56° C | 45% | 1011.8 hPa | - | - | - | - |
| 1777900217 | 20.56° C | 45% | 1012 hPa | - | - | - | - |
| 1777899617 | 20° C | 45% | 1012.2 hPa | - | - | - | - |
| 1777899018 | 20° C | 44% | 1012.4 hPa | - | - | - | - |
| 1777898417 | 20° C | 44% | 1012.4 hPa | - | - | - | - |
| 1777897817 | 19.44° C | 45% | 1012.6 hPa | - | - | - | - |
| 1777897218 | 19.44° C | 45% | 1012.5 hPa | - | - | - | - |
| 1777896618 | 19.44° C | 46% | 1012.7 hPa | - | - | - | - |
| 1777896017 | 18.89° C | 46% | 1012.8 hPa | - | - | - | - |
| 1777895418 | 18.89° C | 46% | 1012.9 hPa | - | - | - | - |
| 1777894818 | 18.89° C | 47% | 1012.9 hPa | - | - | - | - |
| 1777894218 | 18.89° C | 46% | 1013.2 hPa | - | - | - | - |
| 1777893618 | 18.89° C | 47% | 1013.2 hPa | - | - | - | - |
| 1777893017 | 18.89° C | 46% | 1013.1 hPa | - | - | - | - |
| 1777892418 | 18.89° C | 47% | 1013.2 hPa | - | - | - | - |
| 1777891817 | 18.33° C | 47% | 1013.3 hPa | - | - | - | - |
| 1777891218 | 18.33° C | 47% | 1013.6 hPa | - | - | - | - |
| 1777890618 | 18.33° C | 46% | 1013.7 hPa | - | - | - | - |
| 1777890018 | 17.78° C | 48% | 1013.8 hPa | - | - | - | - |
| 1777889417 | 17.78° C | 48% | 1014 hPa | - | - | - | - |
* Rain since midnight (hover to see other rain measurements)
** Current wind speed in m/s (hover to see current wind gust speed)